Aeroporto :
LOGIN :

Iscrizione | Disclaimer

   EN    FR    IT 

 










Sommario :    VFR   VFR Marginale   IFR   IFR Intensivo   IFR Molto Intensivo
Visibilità : 
Base nubi : 
>= 8 km
>= 3000ft
5 / 8 km
1000 / 3000 ft
1500m / 5 km
500 / 1000 ft
800 / 1500m
200 / 500 ft
< 800m
< 200 ft
Simboli :   Temporali  Nebbia  Neve Forte  Precipitazioni Forti  Vento > 20 kt
SIGMETs :   Varie  Temporali  Ghiacco  Turbolenza  Onda orograficha  Ceneri Vulcaniche






- Altitudine del aeroporto : 183 ft
- Codice IATA : HAJ


EDDV - Hanover/Langenhagen Int.

ULTIMO METAR :
  • 150220Z 14004KT 110V170 CAVOK 04/01 Q0996

METARs OBSOLETI :
  • 150150Z 18007KT 150V210 CAVOK 04/00 Q0997
  • 150120Z 20007KT CAVOK 04/00 Q0997
  • 150050Z 19006KT 9999 FEW033 03/00 Q0997
  • 150020Z 21008KT CAVOK 04/00 Q0998
  • 142350Z 23011KT 200V260 9999 FEW033 04/00 Q0998

TAF TAF EDDV
Valido dal 15 a 00 ore il 16 a 00 ore UTC


142300Z 1500/1524 23013KT 9999 SCT025
BECMG 1500/1502 18008KT
TEMPO 1505/1509 RA
PROB30
TEMPO 1506/1509 4500 BKN009
BECMG 1507/1509 23015G25KT
TEMPO 1508/1515 25020G35KT
BECMG 1515/1518 21011KT



MetMap, La meteo Aeronautica in un colpo d'occhio ! - Copyright ORBIFLY Dicembre 2007 - Disclaimer

ORBIFLY MET'MAP TEAM :

Programmazione e sviluppo : Alexandra Zaïnal
Concezione : Baudouin d'Aumeries
Aiuto per la programmazione : Marc-Olivier Méhu
Supporto tecnico e logistico : Manuel Goepfert
Aiuto per la traduzione : Arnaldo La Scala

Contatto : metmap@orbifly.com




FONTI E CREDITI :

   NOAA